ePrivacy and GPDR Cookie Consent by Cookie Consent
EmailTwitter


Observations de surface / Québec / CYUL (71627)

Régions: Québec | Canada | États-Unis | Europe | France | UK | Ailleurs
Station
Affichage
Infos & localisation pour CYUL (71627) | Aide pour décoder les METARs

Observations prises le 2024-04-12 à 19H53 UTC à MONTREAL INTL A, QB (CYUL)

Etat du ciel: couvert.

Obstacle(s) à la visibilité: averses de pluie modérée.

Température: 12.0 Celsius

Point de rosée: 11.0 Celsius

Humidité relative: 94%

Vents: Sud-ouest à 13 km/h ou 7 noeuds.

Pression au niveau moyen de la mer: 98.72 kilopascals.

Calage altimétrique: 98.68 kilopascals ou 29.14 pouces de mercure.

Visibilité horizontale: 2.50 milles terrestres ou 4.00 kilomètres.

Hauteur du plafond: 183 mètres ( 600 pieds ).

Observation METAR:

CYUL 121953Z 23007KT 200V280 2 1/2SM SHRA BKN006 OVC012TCU 12/11 A2914 RMK

SF5TCU3 SLP872 DENSITY ALT 800FT=